Time;durP1;ratioP1;P1;durP2;ratioP2;P2;SDS_P1;SDS_P2;PMS_P1;PMS_P2;Temp;Humidity;BMP_temperature;BMP_pressure;BME280_temperature;BME280_humidity;BME280_pressure;Samples;Min_cycle;Max_cycle;Signal;HPM_P1;HPM_P2
2021/03/06 00:03:38;;;;;;;22.00;11.57;;;-0.10;77.60;;;;;;8223187;28;20488;-75
2021/03/06 00:07:45;;;;;;;21.90;12.30;;;-0.20;77.50;;;;;;8223023;28;20207;-77
2021/03/06 00:11:51;;;;;;;14.00;12.00;;;-0.20;78.10;;;;;;8220432;28;20198;-76
2021/03/06 00:15:54;;;;;;;17.20;13.23;;;-0.20;78.10;;;;;;8207027;28;20480;-76
2021/03/06 00:19:55;;;;;;;17.83;12.90;;;-0.30;78.30;;;;;;8223071;28;20536;-76
2021/03/06 00:23:59;;;;;;;14.40;10.90;;;-0.30;78.00;;;;;;8218970;28;20451;-74
2021/03/06 00:28:04;;;;;;;18.43;10.60;;;-0.30;78.20;;;;;;8229392;28;20471;-75
2021/03/06 00:32:07;;;;;;;22.67;12.17;;;-0.40;77.70;;;;;;8230716;28;20529;-75
2021/03/06 00:36:08;;;;;;;14.50;12.20;;;-0.40;77.90;;;;;;8219166;28;20229;-75
2021/03/06 00:40:18;;;;;;;17.80;12.50;;;-0.50;78.00;;;;;;8222941;28;20458;-75
2021/03/06 00:44:18;;;;;;;21.17;13.07;;;-0.50;78.40;;;;;;8220168;28;20461;-75
2021/03/06 00:48:23;;;;;;;21.83;13.90;;;-0.60;78.30;;;;;;8227564;28;20550;-75
2021/03/06 00:52:24;;;;;;;21.70;14.43;;;-0.70;78.60;;;;;;8226027;28;20226;-76
2021/03/06 00:56:25;;;;;;;17.80;13.43;;;-0.70;79.20;;;;;;8227998;28;20998;-76
2021/03/06 01:00:25;;;;;;;22.60;13.10;;;-0.70;80.30;;;;;;8212054;28;20933;-76
2021/03/06 01:04:26;;;;;;;21.83;15.20;;;-0.80;79.80;;;;;;8228991;28;20216;-76
2021/03/06 01:08:27;;;;;;;19.17;13.90;;;-0.80;79.70;;;;;;8211478;28;20229;-75
2021/03/06 01:12:35;;;;;;;22.23;15.10;;;-0.90;79.20;;;;;;8224546;28;20205;-75
2021/03/06 01:16:43;;;;;;;22.60;14.63;;;-0.90;79.70;;;;;;8229184;28;20478;-75
2021/03/06 01:20:50;;;;;;;21.97;15.20;;;-0.90;79.80;;;;;;8229962;28;20474;-75
2021/03/06 01:24:50;;;;;;;24.00;14.63;;;-1.00;80.40;;;;;;8229461;28;21078;-75
2021/03/06 01:28:57;;;;;;;20.73;14.03;;;-1.00;80.10;;;;;;8223820;28;20459;-76
2021/03/06 01:33:05;;;;;;;21.63;16.00;;;-1.00;80.40;;;;;;8229960;28;20443;-76
2021/03/06 01:37:06;;;;;;;18.27;14.40;;;-1.00;80.60;;;;;;8219237;28;20453;-76
2021/03/06 01:41:06;;;;;;;27.03;14.17;;;-1.00;80.60;;;;;;8221945;28;20539;-76
2021/03/06 01:45:11;;;;;;;21.43;16.57;;;-1.00;80.70;;;;;;8231873;28;20229;-76
2021/03/06 01:49:12;;;;;;;18.57;14.00;;;-1.10;80.60;;;;;;8228004;28;20466;-76
2021/03/06 01:53:16;;;;;;;20.80;14.87;;;-1.10;80.60;;;;;;8219251;28;20449;-76
2021/03/06 01:57:25;;;;;;;16.90;12.60;;;-1.10;80.70;;;;;;8223298;28;20457;-76
2021/03/06 02:01:26;;;;;;;26.77;13.40;;;-1.10;80.60;;;;;;8224926;28;20839;-75
2021/03/06 02:05:34;;;;;;;24.60;14.73;;;-1.20;80.80;;;;;;8230495;28;20949;-75
2021/03/06 02:09:37;;;;;;;17.60;13.27;;;-1.20;80.50;;;;;;8222467;28;20972;-75
2021/03/06 02:14:02;;;;;;;29.67;16.30;;;-1.30;80.70;;;;;;8227831;28;20803;-75
2021/03/06 02:18:15;;;;;;;21.23;14.20;;;-1.20;80.90;;;;;;8227037;28;20503;-76
2021/03/06 02:22:28;;;;;;;19.70;12.43;;;-1.30;81.20;;;;;;8229103;28;20500;-77
2021/03/06 02:26:50;;;;;;;20.03;12.97;;;-1.30;81.40;;;;;;8222171;28;20533;-76
2021/03/06 02:30:54;;;;;;;23.53;12.70;;;-1.30;81.00;;;;;;8224714;28;20459;-75
2021/03/06 02:35:10;;;;;;;26.10;14.83;;;-1.30;81.00;;;;;;8218373;28;20485;-76
2021/03/06 02:39:20;;;;;;;25.13;14.13;;;-1.30;80.60;;;;;;8225789;28;20483;-76
2021/03/06 02:43:22;;;;;;;22.70;12.83;;;-1.40;80.20;;;;;;8226440;28;20484;-76
2021/03/06 02:47:36;;;;;;;15.47;10.60;;;-1.50;80.20;;;;;;8222673;28;20461;-76
2021/03/06 02:51:42;;;;;;;16.97;13.27;;;-1.50;80.50;;;;;;8220127;28;20446;-75
2021/03/06 02:55:43;;;;;;;14.43;10.27;;;-1.50;80.50;;;;;;8246416;28;20465;-76
2021/03/06 02:59:56;;;;;;;14.20;10.30;;;-1.50;80.30;;;;;;8226625;28;20475;-76
2021/03/06 03:04:33;;;;;;;14.10;9.63;;;-1.50;80.50;;;;;;8221151;28;20207;-76
2021/03/06 03:08:52;;;;;;;17.27;11.03;;;-1.60;80.30;;;;;;8220892;28;20478;-76
2021/03/06 03:13:29;;;;;;;14.63;12.07;;;-1.60;80.60;;;;;;8235342;28;20938;-75
2021/03/06 03:17:39;;;;;;;16.77;11.80;;;-1.60;80.70;;;;;;8221612;28;20457;-76
2021/03/06 03:21:48;;;;;;;15.27;11.30;;;-1.70;80.70;;;;;;8220051;28;20814;-75
2021/03/06 03:25:50;;;;;;;15.23;9.80;;;-1.70;80.80;;;;;;8222172;28;20445;-75
2021/03/06 03:29:52;;;;;;;18.70;11.13;;;-1.80;80.90;;;;;;8221917;28;20540;-75
2021/03/06 03:33:53;;;;;;;21.30;11.73;;;-1.80;80.80;;;;;;8219435;28;20477;-75
2021/03/06 03:37:55;;;;;;;13.10;10.37;;;-1.80;80.90;;;;;;8224511;28;20852;-76
2021/03/06 03:42:00;;;;;;;17.87;11.23;;;-1.80;80.90;;;;;;8220322;28;20442;-75
2021/03/06 03:46:05;;;;;;;18.13;13.30;;;-1.90;80.80;;;;;;8234198;28;20557;-75
2021/03/06 03:50:09;;;;;;;14.57;11.10;;;-1.90;80.90;;;;;;8220720;28;20449;-75
2021/03/06 03:54:25;;;;;;;15.07;11.87;;;-1.90;81.00;;;;;;8226381;28;20485;-76
2021/03/06 03:58:25;;;;;;;30.03;12.10;;;-1.90;81.10;;;;;;8216064;28;20532;-75
2021/03/06 04:02:28;;;;;;;18.93;11.50;;;-1.90;81.30;;;;;;8234570;28;20797;-76
2021/03/06 04:06:28;;;;;;;18.27;11.30;;;-1.90;81.30;;;;;;8225317;28;20254;-75
2021/03/06 04:10:29;;;;;;;19.87;10.03;;;-1.90;81.30;;;;;;8207884;28;20492;-75
2021/03/06 04:14:34;;;;;;;17.70;11.40;;;-1.90;81.20;;;;;;8225423;28;20182;-75
2021/03/06 04:18:35;;;;;;;24.37;12.90;;;-2.00;80.90;;;;;;8210185;28;20478;-75
2021/03/06 04:22:36;;;;;;;19.73;11.03;;;-2.00;81.20;;;;;;8230361;28;20460;-76
2021/03/06 04:26:40;;;;;;;17.50;11.97;;;-2.00;81.20;;;;;;8235770;28;20217;-75
2021/03/06 04:30:44;;;;;;;14.47;10.83;;;-2.00;81.20;;;;;;8225646;28;20448;-76
2021/03/06 04:34:45;;;;;;;17.53;12.93;;;-2.00;81.10;;;;;;8227779;28;20544;-75
2021/03/06 04:38:49;;;;;;;16.70;12.03;;;-2.00;81.10;;;;;;8224881;28;20733;-75
2021/03/06 04:42:50;;;;;;;17.47;13.00;;;-2.00;81.10;;;;;;8230384;28;20445;-76
2021/03/06 04:46:51;;;;;;;16.57;10.87;;;-2.00;81.00;;;;;;8231703;28;20473;-76
2021/03/06 04:50:51;;;;;;;21.77;11.67;;;-2.10;80.90;;;;;;8221790;28;20290;-76
2021/03/06 04:54:55;;;;;;;19.90;11.40;;;-2.10;81.00;;;;;;8229330;28;20288;-76
2021/03/06 04:58:56;;;;;;;24.30;12.77;;;-2.10;80.90;;;;;;8239498;28;20482;-76
2021/03/06 05:02:57;;;;;;;22.10;10.97;;;-2.10;80.90;;;;;;8232526;28;20382;-76
2021/03/06 05:06:58;;;;;;;18.03;10.57;;;-2.20;80.90;;;;;;8202328;28;20219;-76
2021/03/06 05:11:04;;;;;;;14.60;10.33;;;-2.20;80.80;;;;;;8222564;28;20213;-76
2021/03/06 05:15:06;;;;;;;16.27;9.73;;;-2.20;81.20;;;;;;8227299;28;20437;-76
2021/03/06 05:19:11;;;;;;;20.00;12.97;;;-2.20;81.30;;;;;;8232887;28;20459;-76
2021/03/06 05:23:16;;;;;;;23.03;13.73;;;-2.20;81.20;;;;;;8226263;28;20474;-76
2021/03/06 05:27:22;;;;;;;16.57;10.97;;;-2.20;81.20;;;;;;8232242;28;20471;-76
2021/03/06 05:31:22;;;;;;;14.37;10.97;;;-2.20;81.10;;;;;;8211149;28;20947;-76
2021/03/06 05:35:27;;;;;;;19.20;11.97;;;-2.30;80.80;;;;;;8223530;28;20796;-76
2021/03/06 05:39:31;;;;;;;13.03;10.13;;;-2.30;80.90;;;;;;8226886;28;20461;-76
2021/03/06 05:43:32;;;;;;;19.57;13.53;;;-2.30;81.10;;;;;;8214625;28;20899;-76
2021/03/06 05:47:40;;;;;;;17.20;11.23;;;-2.30;80.90;;;;;;8221737;28;20186;-76
2021/03/06 05:51:41;;;;;;;21.03;13.70;;;-2.30;80.90;;;;;;8227337;28;20476;-76
2021/03/06 05:55:53;;;;;;;18.07;10.67;;;-2.30;80.90;;;;;;8230414;28;20277;-76
2021/03/06 05:59:54;;;;;;;16.50;12.33;;;-2.30;81.00;;;;;;8225970;28;20449;-75
2021/03/06 06:03:59;;;;;;;19.10;12.57;;;-2.30;80.90;;;;;;8222697;28;20466;-76
2021/03/06 06:08:03;;;;;;;15.97;12.73;;;-2.40;81.00;;;;;;8221659;28;20559;-76
2021/03/06 06:12:07;;;;;;;13.40;12.07;;;-2.30;81.30;;;;;;8224130;28;20446;-76
2021/03/06 06:16:08;;;;;;;19.87;11.37;;;-2.30;81.20;;;;;;8230414;28;20561;-77
2021/03/06 06:20:09;;;;;;;20.30;12.37;;;-2.30;81.30;;;;;;8198290;28;20460;-76
2021/03/06 06:24:17;;;;;;;17.57;13.87;;;-2.30;81.30;;;;;;8228510;28;20678;-76
2021/03/06 06:28:21;;;;;;;16.30;11.43;;;-2.30;81.20;;;;;;8224565;28;20465;-76
2021/03/06 06:32:26;;;;;;;25.03;12.83;;;-2.30;81.30;;;;;;8224227;28;20545;-76
2021/03/06 06:36:38;;;;;;;16.90;13.20;;;-2.20;81.50;;;;;;8224595;28;20282;-76
2021/03/06 06:40:39;;;;;;;23.97;12.87;;;-2.20;81.60;;;;;;8223215;28;20442;-76
2021/03/06 06:44:56;;;;;;;21.77;14.00;;;-2.20;81.70;;;;;;8223842;28;20465;-75
2021/03/06 06:49:07;;;;;;;25.40;16.60;;;-2.00;82.10;;;;;;8227910;28;20437;-76
2021/03/06 06:53:29;;;;;;;18.37;14.70;;;-1.90;82.30;;;;;;8226533;28;20822;-76
2021/03/06 06:57:29;;;;;;;24.43;15.00;;;-1.80;82.40;;;;;;8228307;28;20883;-76
2021/03/06 07:01:36;;;;;;;19.30;15.27;;;-1.60;82.50;;;;;;8232866;28;20437;-75
2021/03/06 07:05:39;;;;;;;22.10;16.20;;;-1.50;82.50;;;;;;8228275;28;20835;-76
2021/03/06 07:10:05;;;;;;;29.17;16.00;;;-1.40;82.60;;;;;;8222483;28;20537;-74
2021/03/06 07:14:07;;;;;;;18.33;13.37;;;-1.10;83.80;;;;;;8227316;28;20480;-76
2021/03/06 07:18:18;;;;;;;12.43;9.20;;;-0.50;86.60;;;;;;8220872;28;20908;-77
2021/03/06 07:22:32;;;;;;;11.50;9.87;;;0.50;89.30;;;;;;8225765;28;20438;-78
2021/03/06 07:26:33;;;;;;;13.80;9.33;;;2.10;90.00;;;;;;8232201;28;20475;-77
2021/03/06 07:30:37;;;;;;;11.00;9.40;;;3.70;86.80;;;;;;8225947;28;20586;-77
2021/03/06 07:34:38;;;;;;;15.27;8.30;;;5.00;82.10;;;;;;8225217;28;20799;-76
2021/03/06 07:38:46;;;;;;;14.67;9.33;;;6.20;76.40;;;;;;8225409;28;20194;-77
2021/03/06 07:42:57;;;;;;;10.97;8.90;;;7.10;69.50;;;;;;8223208;28;20451;-77
2021/03/06 07:46:59;;;;;;;12.80;9.40;;;8.00;65.80;;;;;;8221129;28;20223;-77
2021/03/06 07:51:02;;;;;;;10.43;9.30;;;8.60;65.00;;;;;;8226661;28;20451;-76
2021/03/06 07:55:04;;;;;;;10.40;9.30;;;9.10;60.20;;;;;;8218869;28;20436;-76
2021/03/06 07:59:10;;;;;;;12.10;9.60;;;9.50;54.40;;;;;;8225463;28;20449;-77
2021/03/06 08:03:23;;;;;;;14.33;9.47;;;9.90;53.60;;;;;;8236116;28;21221;-77
2021/03/06 08:07:40;;;;;;;14.00;9.27;;;10.20;52.30;;;;;;8235962;28;20453;-77
2021/03/06 08:11:49;;;;;;;13.70;10.20;;;10.20;49.90;;;;;;8227435;28;20456;-78
2021/03/06 08:15:56;;;;;;;10.30;9.10;;;10.10;49.80;;;;;;8218082;28;21380;-77
2021/03/06 08:19:57;;;;;;;11.20;9.40;;;10.30;50.80;;;;;;8233189;28;20453;-78
2021/03/06 08:24:34;;;;;;;13.10;10.10;;;10.70;49.50;;;;;;8228080;28;20493;-78
2021/03/06 08:28:35;;;;;;;14.80;10.77;;;11.30;47.80;;;;;;8194086;28;20461;-78
2021/03/06 08:32:46;;;;;;;14.13;10.07;;;11.70;46.40;;;;;;8233675;28;20449;-78
2021/03/06 08:36:46;;;;;;;11.43;9.57;;;12.10;45.90;;;;;;8237642;28;20462;-79
2021/03/06 08:40:47;;;;;;;12.10;9.60;;;12.50;44.30;;;;;;8226475;28;20452;-77
2021/03/06 08:44:54;;;;;;;15.80;11.00;;;12.70;44.50;;;;;;8226532;28;20311;-77
2021/03/06 08:48:55;;;;;;;16.57;10.67;;;12.50;44.00;;;;;;8230764;28;20484;-77
2021/03/06 08:53:00;;;;;;;14.27;9.87;;;12.40;45.30;;;;;;8223746;28;20814;-78
2021/03/06 08:57:38;;;;;;;14.50;10.53;;;13.00;44.10;;;;;;8231692;28;20675;-77
2021/03/06 09:01:40;;;;;;;10.57;9.40;;;13.50;43.50;;;;;;8218379;28;20546;-78
2021/03/06 09:05:45;;;;;;;12.07;9.80;;;14.20;43.10;;;;;;8224577;28;20557;-78
2021/03/06 09:09:49;;;;;;;11.03;9.00;;;14.90;42.20;;;;;;8227553;28;20475;-78
2021/03/06 09:13:54;;;;;;;12.13;9.23;;;15.30;39.40;;;;;;8224716;28;20477;-77
2021/03/06 09:18:02;;;;;;;14.20;9.37;;;15.50;38.80;;;;;;8229952;28;20840;-77
2021/03/06 09:22:25;;;;;;;9.00;8.10;;;15.90;38.10;;;;;;8221878;28;20444;-78
2021/03/06 09:26:35;;;;;;;9.03;8.03;;;16.00;37.30;;;;;;8225069;28;20471;-77
2021/03/06 09:30:41;;;;;;;7.57;6.87;;;16.20;37.70;;;;;;8220674;28;20495;-77
2021/03/06 09:34:44;;;;;;;13.50;9.20;;;16.20;37.40;;;;;;8227963;28;20460;-77
2021/03/06 09:38:48;;;;;;;9.00;8.10;;;16.10;37.20;;;;;;8235525;28;20454;-77
2021/03/06 09:42:53;;;;;;;12.63;8.53;;;16.00;37.70;;;;;;8233540;28;21315;-77
2021/03/06 09:46:59;;;;;;;14.37;8.10;;;15.80;37.90;;;;;;8230759;28;20477;-77
2021/03/06 09:51:00;;;;;;;11.17;7.93;;;15.90;37.40;;;;;;8226088;28;20507;-78
2021/03/06 09:55:17;;;;;;;12.70;8.57;;;15.60;37.50;;;;;;8234122;28;20456;-76
2021/03/06 09:59:20;;;;;;;13.73;9.17;;;15.30;38.60;;;;;;8225295;28;20480;-78
2021/03/06 10:03:32;;;;;;;8.90;6.90;;;15.20;37.60;;;;;;8230888;28;20490;-76
2021/03/06 10:07:33;;;;;;;8.77;7.07;;;15.40;37.60;;;;;;8227156;28;20531;-77
2021/03/06 10:11:48;;;;;;;9.70;6.93;;;15.80;37.10;;;;;;8226085;28;20447;-77
2021/03/06 10:15:56;;;;;;;6.90;5.93;;;15.60;36.20;;;;;;8228417;28;20431;-78
2021/03/06 10:20:07;;;;;;;8.53;6.50;;;14.80;36.40;;;;;;8226574;28;20523;-77
2021/03/06 10:24:14;;;;;;;8.70;5.23;;;14.30;36.90;;;;;;8228948;28;20480;-77
2021/03/06 10:28:15;;;;;;;11.73;7.40;;;14.40;36.60;;;;;;8225977;28;20477;-77
2021/03/06 10:32:22;;;;;;;6.00;5.40;;;14.30;36.50;;;;;;8215275;28;20478;-77
2021/03/06 10:36:25;;;;;;;6.57;4.90;;;14.40;36.90;;;;;;8226389;28;20193;-76
2021/03/06 10:40:52;;;;;;;11.63;5.37;;;14.50;37.70;;;;;;8221253;28;21086;-76
2021/03/06 10:44:54;;;;;;;6.00;5.40;;;14.50;36.70;;;;;;8227897;28;20475;-76
2021/03/06 10:49:07;;;;;;;6.43;4.87;;;14.50;37.00;;;;;;8204337;28;20525;-75
2021/03/06 10:53:24;;;;;;;9.00;5.57;;;14.40;35.90;;;;;;8227510;28;20545;-79
2021/03/06 10:57:35;;;;;;;8.20;6.20;;;14.00;36.40;;;;;;8225118;28;20473;-78
2021/03/06 11:01:53;;;;;;;6.50;5.50;;;13.90;36.30;;;;;;8218735;28;20446;-76
2021/03/06 11:05:58;;;;;;;6.97;5.87;;;13.60;36.40;;;;;;8222001;28;20515;-77
2021/03/06 11:10:03;;;;;;;8.20;6.10;;;13.30;36.90;;;;;;8238076;28;20501;-78
2021/03/06 11:14:24;;;;;;;7.00;5.60;;;13.00;37.10;;;;;;8227587;28;21380;-75
2021/03/06 11:18:25;;;;;;;8.30;5.87;;;13.20;36.80;;;;;;8220478;28;20535;-76
2021/03/06 11:22:27;;;;;;;6.20;5.10;;;13.00;37.10;;;;;;8221816;28;20480;-77
2021/03/06 11:26:29;;;;;;;9.27;6.80;;;12.90;37.30;;;;;;8206814;28;20254;-75
2021/03/06 11:30:33;;;;;;;12.67;6.23;;;13.10;37.10;;;;;;8225336;28;20470;-77
2021/03/06 11:34:38;;;;;;;9.17;6.50;;;13.00;37.20;;;;;;8218481;28;20446;-76
2021/03/06 11:38:42;;;;;;;13.70;10.30;;;12.90;36.00;;;;;;8224199;28;20480;-76
2021/03/06 11:42:44;;;;;;;8.27;5.63;;;12.60;37.00;;;;;;8223344;28;20536;-76
2021/03/06 11:46:52;;;;;;;9.33;5.70;;;12.70;37.40;;;;;;8208553;28;20225;-77
2021/03/06 11:50:54;;;;;;;5.70;4.70;;;12.70;37.10;;;;;;8226046;28;20480;-78
2021/03/06 11:54:56;;;;;;;7.67;6.23;;;12.70;36.30;;;;;;8228911;28;20451;-76
2021/03/06 11:59:06;;;;;;;10.17;5.80;;;12.80;36.20;;;;;;8233570;28;20444;-78
2021/03/06 12:03:09;;;;;;;7.23;6.20;;;13.00;37.30;;;;;;8242306;28;20451;-78
2021/03/06 12:07:10;;;;;;;9.60;6.37;;;13.00;37.00;;;;;;8219811;28;20538;-78
2021/03/06 12:11:14;;;;;;;8.57;7.10;;;12.80;37.40;;;;;;8223281;28;20463;-76
2021/03/06 12:15:20;;;;;;;14.10;8.97;;;12.90;37.00;;;;;;8202702;28;20464;-76
2021/03/06 12:19:23;;;;;;;8.27;6.00;;;12.90;37.70;;;;;;8217074;28;20179;-76
2021/03/06 12:23:23;;;;;;;8.10;6.57;;;13.20;38.50;;;;;;8220939;28;20546;-76
2021/03/06 12:27:27;;;;;;;10.07;7.23;;;13.30;36.30;;;;;;8218513;28;20486;-75
2021/03/06 12:31:31;;;;;;;8.63;5.70;;;13.20;37.00;;;;;;8217770;28;20236;-77
2021/03/06 12:35:32;;;;;;;10.97;5.60;;;13.00;36.00;;;;;;8220480;28;20445;-77
2021/03/06 12:39:41;;;;;;;13.40;6.60;;;13.00;36.40;;;;;;8226096;28;20455;-79
2021/03/06 12:43:42;;;;;;;7.77;6.47;;;13.20;36.60;;;;;;8229466;28;20959;-78
2021/03/06 12:47:44;;;;;;;27.13;14.30;;;13.50;36.90;;;;;;8215606;28;20957;-77
2021/03/06 12:51:46;;;;;;;34.13;17.30;;;13.70;34.80;;;;;;8229997;28;20697;-77
2021/03/06 12:55:53;;;;;;;6.53;5.60;;;13.60;34.80;;;;;;8226749;28;20495;-78
2021/03/06 12:59:54;;;;;;;10.50;5.80;;;13.70;36.50;;;;;;8211972;28;20456;-77
2021/03/06 13:04:00;;;;;;;5.03;4.53;;;13.70;35.00;;;;;;8229889;28;20470;-76
2021/03/06 13:08:13;;;;;;;6.63;5.07;;;13.40;34.50;;;;;;8225849;28;20695;-77
2021/03/06 13:12:15;;;;;;;5.70;4.40;;;13.40;33.40;;;;;;8218838;28;20442;-76
2021/03/06 13:16:16;;;;;;;8.20;4.77;;;13.40;34.00;;;;;;8231080;28;20938;-76
2021/03/06 13:20:17;;;;;;;6.10;5.00;;;13.20;33.90;;;;;;8229760;28;20442;-76
2021/03/06 13:24:19;;;;;;;8.13;5.40;;;13.30;35.10;;;;;;8197579;28;20222;-76
2021/03/06 13:28:22;;;;;;;5.13;4.57;;;13.30;34.50;;;;;;8227878;28;20529;-76
2021/03/06 13:32:23;;;;;;;4.90;4.33;;;13.30;35.10;;;;;;8221406;28;20443;-74
2021/03/06 13:36:34;;;;;;;6.00;5.30;;;13.20;34.60;;;;;;8220545;28;20541;-76
2021/03/06 13:40:35;;;;;;;5.53;4.93;;;13.30;34.90;;;;;;8212560;28;20453;-75
2021/03/06 13:44:39;;;;;;;8.13;6.20;;;13.10;35.90;;;;;;8224249;28;20477;-75
2021/03/06 13:48:41;;;;;;;7.10;4.97;;;13.30;35.20;;;;;;8207845;28;20490;-76
2021/03/06 13:52:47;;;;;;;9.23;5.40;;;13.30;35.90;;;;;;8231883;28;20443;-76
2021/03/06 13:56:48;;;;;;;9.20;6.33;;;13.30;34.70;;;;;;8227488;28;20473;-76
2021/03/06 14:00:48;;;;;;;6.10;4.93;;;13.30;33.30;;;;;;8220800;28;20453;-75
2021/03/06 14:04:59;;;;;;;6.63;5.33;;;13.10;33.90;;;;;;8221300;28;20286;-76
2021/03/06 14:09:02;;;;;;;7.13;5.27;;;12.70;34.10;;;;;;8227151;28;20547;-76
2021/03/06 14:13:10;;;;;;;7.10;4.80;;;12.50;35.90;;;;;;8224903;28;20438;-77
2021/03/06 14:17:11;;;;;;;9.00;5.03;;;12.90;35.50;;;;;;8196726;28;20457;-78
2021/03/06 14:21:14;;;;;;;7.10;4.60;;;13.00;35.00;;;;;;8225305;28;20456;-76
2021/03/06 14:25:15;;;;;;;7.10;4.67;;;13.00;33.70;;;;;;8217236;28;20215;-76
2021/03/06 14:29:16;;;;;;;6.47;5.00;;;12.90;34.20;;;;;;8233053;28;20465;-76
2021/03/06 14:33:16;;;;;;;5.87;5.40;;;13.10;34.00;;;;;;8223738;28;20537;-76
2021/03/06 14:37:19;;;;;;;7.20;5.53;;;13.40;34.00;;;;;;8184621;28;20210;-77
2021/03/06 14:41:22;;;;;;;10.23;4.70;;;13.30;33.80;;;;;;8230263;28;20197;-76
2021/03/06 14:45:27;;;;;;;6.37;4.93;;;13.30;34.60;;;;;;8223538;28;20493;-76
2021/03/06 14:49:46;;;;;;;7.33;5.73;;;13.20;33.30;;;;;;8207590;28;20555;-76
2021/03/06 14:53:52;;;;;;;8.43;5.10;;;13.00;34.40;;;;;;8213187;28;20462;-76
2021/03/06 14:57:56;;;;;;;6.90;4.23;;;12.90;34.40;;;;;;8211588;28;20441;-77
2021/03/06 15:02:01;;;;;;;5.10;4.70;;;12.90;33.80;;;;;;8212898;28;20457;-76
2021/03/06 15:06:03;;;;;;;9.30;5.60;;;12.90;33.60;;;;;;8238587;28;20553;-76
2021/03/06 15:10:05;;;;;;;5.50;4.90;;;13.00;33.70;;;;;;8224926;28;20469;-77
2021/03/06 15:14:11;;;;;;;7.90;4.27;;;13.10;34.30;;;;;;8216819;28;20542;-77
2021/03/06 15:18:14;;;;;;;6.70;4.97;;;13.10;33.10;;;;;;8237882;28;20506;-76
2021/03/06 15:22:16;;;;;;;5.70;5.10;;;13.10;33.20;;;;;;8212003;28;21007;-78
2021/03/06 15:26:24;;;;;;;5.10;4.60;;;13.00;33.30;;;;;;8225920;28;20474;-77
2021/03/06 15:30:28;;;;;;;5.53;4.80;;;12.70;33.70;;;;;;8217023;28;20472;-77
2021/03/06 15:34:30;;;;;;;7.83;4.80;;;12.40;34.70;;;;;;8221354;28;20473;-77
2021/03/06 15:38:39;;;;;;;9.47;4.60;;;12.30;34.30;;;;;;8232267;28;20244;-76
2021/03/06 15:42:39;;;;;;;4.23;3.77;;;12.20;34.20;;;;;;8229257;28;20445;-76
2021/03/06 15:46:48;;;;;;;7.83;5.37;;;12.30;34.60;;;;;;8224150;28;20472;-75
2021/03/06 15:50:49;;;;;;;8.87;5.60;;;12.20;35.00;;;;;;8222411;28;20174;-77
2021/03/06 15:55:00;;;;;;;8.00;4.60;;;12.10;34.40;;;;;;8220704;28;20449;-79
2021/03/06 15:59:04;;;;;;;8.33;5.70;;;12.00;34.70;;;;;;8220077;28;20277;-75
2021/03/06 16:03:06;;;;;;;8.60;5.47;;;11.90;35.40;;;;;;8227674;28;20456;-77
2021/03/06 16:07:17;;;;;;;8.83;4.90;;;11.80;35.20;;;;;;8229063;28;20473;-77
2021/03/06 16:11:18;;;;;;;6.53;5.17;;;11.80;35.60;;;;;;8229048;28;20465;-77
2021/03/06 16:15:20;;;;;;;10.53;5.30;;;11.70;36.40;;;;;;8216320;28;20449;-76
2021/03/06 16:19:28;;;;;;;8.43;4.97;;;11.70;35.80;;;;;;8228148;28;20761;-75
2021/03/06 16:23:30;;;;;;;6.77;4.40;;;11.60;34.80;;;;;;8243479;28;20449;-75
2021/03/06 16:27:33;;;;;;;7.77;4.70;;;11.70;35.40;;;;;;8226750;28;20481;-78
2021/03/06 16:31:33;;;;;;;7.87;4.50;;;11.70;35.70;;;;;;8224134;28;20525;-74
2021/03/06 16:35:35;;;;;;;8.03;5.17;;;11.60;37.90;;;;;;8221037;28;20451;-77
2021/03/06 16:39:37;;;;;;;8.80;6.17;;;11.20;39.40;;;;;;8232608;28;20248;-75
2021/03/06 16:43:39;;;;;;;7.90;5.07;;;10.80;40.70;;;;;;8222281;28;20455;-77
2021/03/06 16:47:47;;;;;;;6.80;4.80;;;10.40;42.00;;;;;;8222899;28;20515;-75
2021/03/06 16:51:49;;;;;;;6.50;5.63;;;10.10;42.30;;;;;;8230323;28;20857;-77
2021/03/06 16:55:57;;;;;;;7.57;5.20;;;9.80;43.60;;;;;;8224635;28;20503;-76
2021/03/06 17:00:14;;;;;;;6.93;4.87;;;9.40;44.30;;;;;;8221208;28;20490;-75
2021/03/06 17:04:19;;;;;;;7.50;5.60;;;9.10;44.90;;;;;;8221950;28;20528;-73
2021/03/06 17:08:23;;;;;;;7.37;5.20;;;8.90;44.60;;;;;;8227945;28;20470;-74
